Clyde, Iowa
Current Conditions -  °F | °C
As of 11:53 AM on Thursday 30 Oct 2014 (Local Time) from KAMW Reporting Station
Few Clouds Few Clouds  
Wind Chill: 11°   Ceiling: Unl
Heat Index: 11°   Visibility: 10mi
Dew Point:   Wind: 0mph
Humidity: 57%   Direction: NA
Pressure: 30.03"   Gusts: NA
Location:  41.9063°N, 93.2893°W
Report Text: KAMW 301653Z AUTO 00000KT 10SM FEW100 11/03 A3003 RMK AO2 SLP172 T01110028
Loading
Personal Weather Stations






























Interactive Weather Map
Tropical Storm Tracking
New forecast layout! Learn more

10-Day Weather Forecast

Advertisements
Track Severe Weather on mobile